Time;durP1;ratioP1;P1;durP2;ratioP2;P2;SDS_P1;SDS_P2;PMS_P1;PMS_P2;Temp;Humidity;BMP_temperature;BMP_pressure;BME280_temperature;BME280_humidity;BME280_pressure;Samples;Min_cycle;Max_cycle;Signal;HPM_P1;HPM_P2
2022/07/16 00:02:42;;;;;;;1.83;1.73;;;14.80;70.40;;;;;;5145474;27;20602;-80
2022/07/16 00:05:11;;;;;;;2.20;2.10;;;14.90;71.20;;;;;;5145825;27;20741;-80
2022/07/16 00:07:38;;;;;;;2.07;1.87;;;14.80;72.10;;;;;;5145457;27;20641;-77
2022/07/16 00:10:07;;;;;;;2.07;1.97;;;14.80;72.90;;;;;;5145787;27;20650;-78
2022/07/16 00:12:36;;;;;;;2.30;2.10;;;14.80;72.60;;;;;;5145516;27;20614;-78
2022/07/16 00:15:04;;;;;;;2.13;1.60;;;14.70;72.60;;;;;;5146151;27;20610;-78
2022/07/16 00:17:32;;;;;;;1.67;1.57;;;14.80;68.20;;;;;;5145934;27;21013;-81
2022/07/16 00:19:58;;;;;;;2.80;1.97;;;14.80;68.70;;;;;;5145277;27;21235;-79
2022/07/16 00:22:27;;;;;;;2.07;1.87;;;14.90;68.00;;;;;;5144900;27;20606;-79
2022/07/16 00:24:55;;;;;;;2.30;1.63;;;14.80;71.20;;;;;;5145602;27;20614;-78
2022/07/16 00:27:23;;;;;;;1.57;1.47;;;14.70;71.80;;;;;;5145676;27;20624;-78
2022/07/16 00:29:50;;;;;;;2.60;2.37;;;14.60;71.80;;;;;;5144641;27;20685;-77
2022/07/16 00:32:17;;;;;;;2.00;1.80;;;14.50;72.30;;;;;;5144873;27;20708;-78
2022/07/16 00:34:44;;;;;;;2.30;1.77;;;14.50;71.80;;;;;;5123925;27;20728;-78
2022/07/16 00:37:12;;;;;;;2.13;1.93;;;14.40;70.70;;;;;;5124839;28;20706;-78
2022/07/16 00:39:41;;;;;;;2.20;1.93;;;14.40;70.30;;;;;;5124649;28;20773;-77
2022/07/16 00:42:08;;;;;;;1.40;1.30;;;14.40;70.60;;;;;;5141708;27;20623;-78
2022/07/16 00:44:36;;;;;;;2.33;1.73;;;14.40;70.70;;;;;;5144817;27;20621;-78
2022/07/16 00:47:04;;;;;;;2.03;1.90;;;14.40;70.30;;;;;;5145582;27;20614;-79
2022/07/16 00:49:32;;;;;;;1.60;1.50;;;14.40;70.70;;;;;;5145156;27;20662;-78
2022/07/16 00:52:00;;;;;;;2.07;1.50;;;14.40;70.80;;;;;;5145106;27;20610;-78
2022/07/16 00:54:28;;;;;;;3.90;1.50;;;14.40;71.50;;;;;;5144323;27;20686;-78
2022/07/16 00:56:56;;;;;;;2.03;1.50;;;14.30;70.80;;;;;;5145367;27;20606;-79
2022/07/16 00:59:24;;;;;;;1.57;1.47;;;14.30;70.50;;;;;;5143142;27;20651;-79
2022/07/16 01:01:51;;;;;;;1.87;1.77;;;14.30;71.10;;;;;;5130289;27;20634;-78
2022/07/16 01:04:18;;;;;;;2.47;1.77;;;14.20;69.90;;;;;;5130501;27;20609;-80
2022/07/16 01:06:46;;;;;;;1.83;1.73;;;14.20;69.40;;;;;;5129953;27;20598;-80
2022/07/16 01:09:14;;;;;;;1.97;1.87;;;14.10;69.60;;;;;;5131013;27;20646;-80
2022/07/16 01:11:43;;;;;;;2.87;1.93;;;14.10;70.10;;;;;;5130878;27;20642;-80
2022/07/16 01:14:12;;;;;;;1.70;1.60;;;14.10;69.80;;;;;;5129824;27;20606;-80
2022/07/16 01:16:38;;;;;;;2.20;1.80;;;14.10;69.60;;;;;;5130910;27;20617;-80
2022/07/16 01:19:09;;;;;;;1.50;1.37;;;14.10;69.40;;;;;;5131309;27;20622;-80
2022/07/16 01:21:37;;;;;;;1.70;1.27;;;14.00;69.80;;;;;;5130973;27;20614;-80
2022/07/16 01:24:06;;;;;;;2.33;2.10;;;14.00;70.20;;;;;;5130247;27;20729;-78
2022/07/16 01:26:33;;;;;;;2.40;1.87;;;13.90;70.30;;;;;;5130571;27;20643;-79
2022/07/16 01:29:01;;;;;;;1.73;1.53;;;13.90;70.70;;;;;;5130027;27;20678;-78
2022/07/16 01:31:28;;;;;;;2.30;1.87;;;13.80;70.40;;;;;;5131357;27;20997;-79
2022/07/16 01:36:53;;;;;;;1.60;1.50;;;13.80;70.20;;;;;;5124536;27;20642;-77
2022/07/16 01:39:22;;;;;;;1.60;1.50;;;13.80;70.20;;;;;;5131118;27;20659;-78
2022/07/16 01:41:51;;;;;;;2.17;1.87;;;13.80;70.60;;;;;;5131512;27;20626;-81
2022/07/16 01:44:19;;;;;;;1.50;1.40;;;13.70;70.40;;;;;;5130821;27;21084;-80
2022/07/16 01:46:47;;;;;;;4.40;2.10;;;13.70;70.10;;;;;;5129871;27;21106;-81
2022/07/16 01:49:15;;;;;;;2.33;1.90;;;13.70;70.20;;;;;;5130937;27;20665;-81
2022/07/16 01:51:43;;;;;;;1.53;1.17;;;13.70;70.30;;;;;;5130271;27;20627;-80
2022/07/16 01:54:10;;;;;;;3.70;1.80;;;13.60;70.30;;;;;;5130682;27;20963;-80
2022/07/16 01:56:40;;;;;;;1.57;1.47;;;13.60;70.40;;;;;;5130960;27;20668;-80
2022/07/16 01:59:07;;;;;;;1.90;1.30;;;13.60;70.60;;;;;;5130784;27;20594;-80
2022/07/16 02:01:34;;;;;;;4.30;2.07;;;13.60;71.20;;;;;;5130416;27;20646;-80
2022/07/16 02:04:01;;;;;;;1.83;1.73;;;13.60;70.10;;;;;;5130046;27;21184;-81
2022/07/16 02:06:28;;;;;;;2.87;1.80;;;13.50;70.70;;;;;;5129857;27;21262;-81
2022/07/16 02:08:54;;;;;;;1.10;1.00;;;13.50;70.10;;;;;;5130669;27;20768;-80
2022/07/16 02:11:21;;;;;;;2.13;1.93;;;13.50;70.40;;;;;;5129532;27;20611;-81
2022/07/16 02:13:50;;;;;;;2.17;2.00;;;13.50;70.30;;;;;;5129606;27;21087;-80
2022/07/16 02:16:16;;;;;;;2.87;2.23;;;13.30;70.70;;;;;;5130406;27;20621;-78
2022/07/16 02:18:43;;;;;;;4.83;1.63;;;13.40;71.20;;;;;;5130046;27;20643;-79
2022/07/16 02:21:10;;;;;;;2.63;1.37;;;13.40;70.30;;;;;;5130448;27;20670;-77
2022/07/16 02:23:37;;;;;;;1.80;1.50;;;13.40;71.20;;;;;;5129128;27;20610;-77
2022/07/16 02:26:04;;;;;;;2.30;2.10;;;13.40;72.40;;;;;;5130541;27;21333;-78
2022/07/16 02:28:31;;;;;;;2.43;2.10;;;13.30;72.30;;;;;;5129905;27;20723;-78
2022/07/16 02:30:59;;;;;;;5.80;2.43;;;13.40;72.40;;;;;;5129632;27;20687;-78
2022/07/16 02:33:26;;;;;;;2.27;1.90;;;13.30;72.30;;;;;;5119740;27;20660;-77
2022/07/16 02:35:53;;;;;;;2.00;1.70;;;13.30;72.50;;;;;;5109318;28;21226;-78
2022/07/16 02:38:20;;;;;;;1.80;1.60;;;13.30;73.10;;;;;;5109387;28;20665;-78
2022/07/16 02:40:47;;;;;;;1.80;1.63;;;13.20;72.50;;;;;;5115809;27;20651;-78
2022/07/16 02:43:14;;;;;;;1.93;1.83;;;13.20;72.10;;;;;;5130805;27;20638;-78
2022/07/16 02:45:42;;;;;;;1.20;1.10;;;13.20;71.90;;;;;;5132386;27;20619;-77
2022/07/16 02:48:11;;;;;;;2.47;1.73;;;13.10;72.80;;;;;;5132217;27;20627;-78
2022/07/16 02:50:39;;;;;;;1.73;1.60;;;13.00;73.20;;;;;;5132643;27;20653;-77
2022/07/16 02:53:06;;;;;;;2.37;1.87;;;13.00;73.50;;;;;;5131746;27;21364;-78
2022/07/16 02:55:33;;;;;;;3.17;2.47;;;13.10;74.00;;;;;;5132581;27;20601;-78
2022/07/16 02:58:00;;;;;;;1.87;1.67;;;13.10;75.00;;;;;;5132442;27;20642;-79
2022/07/16 03:00:28;;;;;;;1.80;1.70;;;13.10;74.70;;;;;;5131972;27;21238;-78
2022/07/16 03:02:55;;;;;;;2.00;1.80;;;13.10;73.40;;;;;;5132119;27;20618;-78
2022/07/16 03:05:23;;;;;;;2.37;2.00;;;13.00;73.70;;;;;;5132792;27;20654;-77
2022/07/16 03:07:50;;;;;;;2.67;2.13;;;13.00;74.80;;;;;;5132521;27;20615;-79
2022/07/16 03:10:17;;;;;;;2.20;2.10;;;13.00;75.80;;;;;;5132912;27;20759;-78
2022/07/16 03:12:44;;;;;;;1.90;1.57;;;12.90;76.50;;;;;;5131894;27;20629;-78
2022/07/16 03:15:12;;;;;;;2.17;2.07;;;12.90;76.70;;;;;;5132627;27;20721;-79
2022/07/16 03:17:39;;;;;;;1.60;1.50;;;12.80;75.40;;;;;;5132499;27;20606;-78
2022/07/16 03:20:08;;;;;;;3.60;1.70;;;12.80;75.70;;;;;;5132728;27;20595;-78
2022/07/16 03:22:36;;;;;;;1.43;1.33;;;12.80;75.00;;;;;;5131560;27;20610;-77
2022/07/16 03:25:03;;;;;;;1.70;1.60;;;12.70;74.70;;;;;;5132857;27;20646;-80
2022/07/16 03:27:30;;;;;;;1.67;1.57;;;12.70;73.70;;;;;;5114715;27;20631;-80
2022/07/16 03:29:57;;;;;;;2.43;2.30;;;12.80;74.30;;;;;;5111572;28;20762;-80
2022/07/16 03:32:24;;;;;;;1.80;1.70;;;12.80;74.50;;;;;;5111357;28;20710;-81
2022/07/16 03:34:51;;;;;;;1.93;1.83;;;12.70;74.20;;;;;;5131332;27;21465;-79
2022/07/16 03:37:17;;;;;;;1.43;1.33;;;12.70;73.90;;;;;;5131277;27;21156;-78
2022/07/16 03:39:46;;;;;;;1.60;1.50;;;12.70;73.80;;;;;;5131166;27;20613;-77
2022/07/16 03:42:13;;;;;;;2.10;1.90;;;12.80;73.90;;;;;;5129791;27;20714;-78
2022/07/16 03:44:39;;;;;;;2.43;2.23;;;12.90;74.70;;;;;;5131002;27;20603;-77
2022/07/16 03:47:06;;;;;;;1.97;1.80;;;13.10;74.00;;;;;;5131158;28;20668;-78
2022/07/16 03:49:33;;;;;;;1.77;1.60;;;13.20;74.10;;;;;;5130975;28;20699;-77
2022/07/16 03:52:00;;;;;;;1.50;1.40;;;13.00;74.20;;;;;;5131032;28;20662;-77
2022/07/16 03:54:27;;;;;;;2.93;2.43;;;13.00;73.80;;;;;;5130060;28;20611;-77
2022/07/16 03:56:55;;;;;;;2.30;2.07;;;12.90;74.50;;;;;;5130915;28;20650;-77
2022/07/16 03:59:22;;;;;;;2.90;1.70;;;12.90;75.10;;;;;;5131206;28;20650;-77
2022/07/16 04:01:49;;;;;;;2.50;2.30;;;12.90;74.60;;;;;;5131514;28;20707;-82
2022/07/16 04:04:16;;;;;;;2.00;1.90;;;13.00;75.00;;;;;;5130808;28;20676;-80
2022/07/16 04:06:43;;;;;;;1.20;1.13;;;13.10;74.40;;;;;;5130961;28;21266;-80
2022/07/16 04:09:09;;;;;;;2.33;2.13;;;12.90;73.90;;;;;;5130295;28;21496;-78
2022/07/16 04:11:36;;;;;;;1.67;1.53;;;12.90;74.40;;;;;;5131732;28;20603;-78
2022/07/16 04:14:05;;;;;;;1.60;1.50;;;12.90;73.50;;;;;;5130651;28;20687;-77
2022/07/16 04:16:31;;;;;;;2.00;1.80;;;12.90;75.40;;;;;;5131473;28;20718;-77
2022/07/16 04:18:58;;;;;;;1.90;1.50;;;12.90;76.40;;;;;;5130948;28;20615;-78
2022/07/16 04:21:25;;;;;;;1.93;1.83;;;13.00;75.80;;;;;;5131327;28;20725;-79
2022/07/16 04:23:52;;;;;;;2.00;1.90;;;12.90;75.10;;;;;;5130907;28;20678;-77
2022/07/16 04:26:19;;;;;;;2.17;1.97;;;12.90;75.20;;;;;;5132865;28;20773;-78
2022/07/16 04:28:50;;;;;;;2.93;2.07;;;12.90;75.50;;;;;;5130958;28;20638;-77
2022/07/16 04:31:18;;;;;;;2.57;1.80;;;13.10;76.00;;;;;;5131503;28;21372;-77
2022/07/16 04:33:45;;;;;;;2.90;2.47;;;13.20;74.90;;;;;;5130490;28;20647;-77
2022/07/16 04:36:12;;;;;;;2.50;1.87;;;13.30;74.10;;;;;;5133593;27;20620;-79
2022/07/16 04:38:39;;;;;;;2.23;2.03;;;13.40;75.30;;;;;;5135174;27;20654;-77
2022/07/16 04:41:06;;;;;;;1.87;1.67;;;13.50;75.60;;;;;;5134916;27;20643;-77
2022/07/16 04:43:33;;;;;;;1.83;1.73;;;13.40;75.80;;;;;;5133930;27;20611;-77
2022/07/16 04:46:00;;;;;;;2.00;1.90;;;13.40;76.50;;;;;;5134690;27;20669;-78
2022/07/16 04:48:28;;;;;;;2.13;1.80;;;13.40;76.50;;;;;;5133970;27;20638;-78
2022/07/16 04:50:55;;;;;;;1.60;1.50;;;13.50;76.80;;;;;;5133760;27;20743;-78
2022/07/16 04:53:22;;;;;;;2.97;2.30;;;13.50;76.30;;;;;;5133841;27;20630;-77
2022/07/16 04:55:48;;;;;;;2.37;2.27;;;13.50;76.30;;;;;;5134804;27;20606;-77
2022/07/16 04:58:15;;;;;;;2.00;1.80;;;13.50;76.30;;;;;;5134263;27;20642;-78
2022/07/16 05:00:42;;;;;;;2.33;2.13;;;13.60;76.90;;;;;;5134399;27;20615;-77
2022/07/16 05:03:09;;;;;;;2.47;2.13;;;13.60;77.50;;;;;;5133431;27;20702;-79
2022/07/16 05:05:39;;;;;;;2.13;1.70;;;13.80;77.00;;;;;;5133688;27;20629;-77
2022/07/16 05:08:07;;;;;;;2.40;1.60;;;13.90;77.00;;;;;;5133948;27;20595;-79
2022/07/16 05:10:34;;;;;;;2.00;1.73;;;14.00;78.50;;;;;;5134434;27;21300;-77
2022/07/16 05:13:02;;;;;;;2.57;1.80;;;14.20;77.60;;;;;;5133495;27;20627;-77
2022/07/16 05:15:30;;;;;;;5.80;1.50;;;14.30;77.50;;;;;;5134414;27;20672;-78
2022/07/16 05:17:57;;;;;;;1.70;1.40;;;14.40;74.90;;;;;;5134106;27;20622;-80
2022/07/16 05:20:24;;;;;;;1.90;1.80;;;14.50;73.50;;;;;;5134074;27;20613;-78
2022/07/16 05:22:52;;;;;;;2.03;1.57;;;14.60;74.10;;;;;;5133572;27;20606;-80
2022/07/16 05:25:19;;;;;;;2.20;1.50;;;14.70;69.30;;;;;;5134021;27;20713;-77
2022/07/16 05:27:45;;;;;;;1.87;1.73;;;14.80;68.20;;;;;;5133938;27;20621;-78
2022/07/16 05:30:12;;;;;;;1.57;1.47;;;15.00;69.20;;;;;;5133334;27;21109;-78
2022/07/16 05:32:40;;;;;;;1.70;1.60;;;15.00;68.20;;;;;;5132610;27;20662;-79
2022/07/16 05:35:07;;;;;;;2.37;1.50;;;15.20;68.40;;;;;;5133872;27;20618;-78
2022/07/16 05:37:34;;;;;;;1.10;1.10;;;15.40;64.30;;;;;;5133461;27;20623;-79
2022/07/16 05:40:03;;;;;;;1.50;1.40;;;15.40;64.00;;;;;;5133430;27;20620;-77
2022/07/16 05:42:30;;;;;;;1.90;1.80;;;15.60;63.90;;;;;;5132831;27;21167;-78
2022/07/16 05:44:56;;;;;;;1.57;1.47;;;15.60;63.90;;;;;;5134223;27;20617;-77
2022/07/16 05:47:23;;;;;;;1.13;1.13;;;15.80;64.90;;;;;;5133012;27;20676;-80
2022/07/16 05:49:50;;;;;;;1.90;1.80;;;16.00;63.40;;;;;;5132946;27;20666;-78
2022/07/16 05:52:17;;;;;;;2.17;1.83;;;16.10;63.50;;;;;;5132231;27;20611;-78
2022/07/16 05:54:44;;;;;;;1.50;1.40;;;16.30;63.50;;;;;;5132767;27;20671;-77
2022/07/16 05:57:12;;;;;;;1.20;1.10;;;16.40;63.00;;;;;;5133252;27;21180;-78
2022/07/16 05:59:39;;;;;;;1.50;1.40;;;16.50;63.10;;;;;;5132587;27;20639;-78
2022/07/16 06:02:06;;;;;;;2.20;1.87;;;16.60;62.40;;;;;;5131948;27;20615;-79
2022/07/16 06:04:32;;;;;;;1.27;1.17;;;16.60;62.20;;;;;;5132416;27;20672;-78
2022/07/16 06:07:00;;;;;;;2.10;1.23;;;16.80;62.20;;;;;;5132673;27;20702;-78
2022/07/16 06:09:27;;;;;;;2.23;1.80;;;16.80;61.00;;;;;;5132327;27;20647;-78
2022/07/16 06:11:54;;;;;;;1.77;1.67;;;17.00;60.30;;;;;;5132076;27;20838;-78
2022/07/16 06:14:22;;;;;;;1.97;1.33;;;17.00;60.00;;;;;;5130185;27;20638;-78
2022/07/16 06:16:49;;;;;;;1.60;1.50;;;17.00;60.80;;;;;;5132017;27;20611;-80
2022/07/16 06:19:16;;;;;;;1.53;1.43;;;17.00;61.20;;;;;;5132379;27;20607;-78
2022/07/16 06:21:43;;;;;;;1.60;1.43;;;16.90;62.00;;;;;;5126624;27;20694;-79
2022/07/16 06:24:10;;;;;;;3.37;1.70;;;17.10;60.40;;;;;;5131124;27;20611;-78
2022/07/16 06:26:37;;;;;;;1.13;1.03;;;17.00;59.40;;;;;;5131565;27;20710;-81
2022/07/16 06:29:04;;;;;;;2.07;1.47;;;16.90;59.90;;;;;;5125025;27;20658;-79
2022/07/16 06:31:32;;;;;;;1.90;1.70;;;16.90;60.10;;;;;;5131991;27;20662;-79
2022/07/16 06:33:59;;;;;;;1.80;1.70;;;17.00;60.40;;;;;;5129856;27;20675;-80
2022/07/16 06:36:26;;;;;;;2.40;1.70;;;17.00;60.10;;;;;;5125852;27;20615;-81
2022/07/16 06:38:53;;;;;;;1.33;1.20;;;17.10;59.30;;;;;;5130959;27;21221;-81
2022/07/16 06:41:20;;;;;;;1.90;1.80;;;17.10;59.80;;;;;;5131293;27;20668;-83
2022/07/16 06:43:46;;;;;;;2.30;1.90;;;17.20;60.20;;;;;;5125595;27;20627;-82
2022/07/16 06:46:13;;;;;;;1.40;1.30;;;17.20;59.30;;;;;;5131945;27;20706;-81
2022/07/16 06:48:42;;;;;;;2.30;1.80;;;17.40;59.00;;;;;;5131125;27;20704;-82
2022/07/16 06:51:08;;;;;;;1.67;1.03;;;17.70;59.80;;;;;;5128695;27;20720;-82
2022/07/16 06:53:38;;;;;;;1.73;1.50;;;17.60;60.10;;;;;;5130503;27;20607;-83
2022/07/16 06:56:06;;;;;;;2.50;1.43;;;17.60;58.60;;;;;;5128321;27;21334;-81
2022/07/16 06:58:33;;;;;;;1.10;1.07;;;17.60;58.00;;;;;;5130150;27;20702;-80
2022/07/16 07:01:01;;;;;;;2.17;1.27;;;17.80;57.50;;;;;;5126952;27;20713;-81
2022/07/16 07:03:28;;;;;;;1.90;1.10;;;17.80;57.90;;;;;;5129595;27;20630;-82
2022/07/16 07:05:56;;;;;;;1.95;1.60;;;17.90;58.50;;;;;;5131462;27;21240;-81
2022/07/16 07:08:23;;;;;;;2.43;2.23;;;18.00;57.30;;;;;;5130439;27;20190;-81
2022/07/16 07:10:50;;;;;;;3.73;1.43;;;18.20;56.80;;;;;;5131017;27;20757;-82
2022/07/16 07:13:17;;;;;;;1.63;1.30;;;18.30;57.30;;;;;;5131906;27;20615;-81
2022/07/16 07:15:44;;;;;;;1.63;1.40;;;18.30;56.30;;;;;;5129929;27;20963;-82
2022/07/16 07:18:11;;;;;;;1.93;1.70;;;18.40;56.70;;;;;;5132276;27;20706;-81
2022/07/16 07:20:37;;;;;;;1.67;1.57;;;18.60;56.40;;;;;;5130161;27;20642;-81
2022/07/16 07:23:06;;;;;;;1.30;1.20;;;18.70;56.00;;;;;;5129741;27;20615;-81
2022/07/16 07:25:32;;;;;;;2.53;1.47;;;18.70;56.20;;;;;;5130676;27;20647;-81
2022/07/16 07:27:59;;;;;;;1.17;1.10;;;18.70;56.20;;;;;;5131406;27;21145;-82
2022/07/16 07:30:26;;;;;;;1.90;1.60;;;18.80;55.70;;;;;;5130093;27;20638;-81
2022/07/16 07:32:53;;;;;;;2.43;1.20;;;18.90;55.60;;;;;;5130648;27;20702;-81
2022/07/16 07:35:20;;;;;;;2.33;1.10;;;18.90;54.80;;;;;;5130819;27;20623;-82
2022/07/16 07:37:47;;;;;;;2.30;1.60;;;19.10;55.10;;;;;;5131221;27;20627;-81
2022/07/16 07:40:16;;;;;;;1.20;1.10;;;19.20;55.70;;;;;;5132027;28;20623;-82
2022/07/16 07:42:43;;;;;;;1.40;1.30;;;19.40;55.10;;;;;;5129606;27;20598;-80
2022/07/16 07:45:10;;;;;;;1.93;1.73;;;19.50;54.80;;;;;;5131880;27;21062;-80
2022/07/16 07:47:38;;;;;;;1.50;1.40;;;19.50;56.10;;;;;;5131890;27;20713;-80
2022/07/16 07:50:06;;;;;;;1.70;1.23;;;19.80;54.70;;;;;;5131368;28;20622;-81
2022/07/16 07:52:33;;;;;;;2.47;1.97;;;20.00;54.80;;;;;;5130950;28;20690;-81
2022/07/16 07:55:00;;;;;;;1.77;1.67;;;20.30;54.80;;;;;;5131765;28;20622;-81
2022/07/16 07:57:28;;;;;;;2.27;2.07;;;20.50;53.80;;;;;;5131905;28;20633;-82
2022/07/16 07:59:55;;;;;;;3.00;1.97;;;20.60;54.40;;;;;;5131663;28;20599;-80
2022/07/16 08:02:22;;;;;;;2.07;1.70;;;20.70;55.00;;;;;;5130993;28;20646;-83
2022/07/16 08:04:49;;;;;;;2.10;1.90;;;20.70;55.00;;;;;;5125619;28;20735;-82
2022/07/16 08:07:16;;;;;;;1.60;1.50;;;20.80;53.90;;;;;;5127391;28;20650;-82
2022/07/16 08:09:43;;;;;;;1.60;1.50;;;20.90;53.80;;;;;;5129512;27;20651;-82
2022/07/16 08:12:10;;;;;;;1.57;1.47;;;20.80;53.30;;;;;;5134499;27;20658;-83
2022/07/16 08:14:39;;;;;;;1.40;1.40;;;20.80;53.40;;;;;;5134606;27;20639;-81
2022/07/16 08:17:05;;;;;;;3.23;1.50;;;20.80;52.30;;;;;;5133994;27;20615;-83
2022/07/16 08:19:33;;;;;;;1.20;1.10;;;21.00;52.90;;;;;;5134883;27;20731;-82
2022/07/16 08:22:01;;;;;;;1.50;1.40;;;21.30;51.80;;;;;;5134466;27;20625;-82
2022/07/16 08:27:12;;;;;;;1.03;1.03;;;21.20;51.40;;;;;;5129799;27;20610;-82
2022/07/16 08:29:41;;;;;;;1.73;1.60;;;21.40;52.40;;;;;;5133588;27;20602;-83
2022/07/16 08:32:08;;;;;;;1.20;1.10;;;21.50;51.90;;;;;;5128976;27;20686;-82
2022/07/16 08:34:35;;;;;;;1.73;1.63;;;21.70;51.70;;;;;;5134103;27;21168;-82
2022/07/16 08:37:02;;;;;;;2.10;1.40;;;21.70;51.30;;;;;;5134202;27;20607;-84
2022/07/16 08:39:29;;;;;;;1.73;1.13;;;21.80;51.70;;;;;;5134176;27;20643;-82
2022/07/16 08:41:56;;;;;;;1.60;1.50;;;21.80;50.50;;;;;;5134939;27;20649;-82
2022/07/16 08:44:23;;;;;;;1.37;1.17;;;21.50;49.70;;;;;;5135011;27;20960;-83
2022/07/16 08:46:53;;;;;;;2.00;1.30;;;21.50;49.90;;;;;;5135202;27;20610;-82
2022/07/16 08:49:21;;;;;;;1.07;0.97;;;21.60;49.30;;;;;;5135425;27;20725;-82
2022/07/16 08:51:49;;;;;;;1.07;0.97;;;21.40;48.80;;;;;;5135122;27;21004;-83
2022/07/16 08:54:20;;;;;;;3.00;1.50;;;21.20;48.90;;;;;;5135296;27;20614;-82
2022/07/16 08:56:49;;;;;;;1.77;1.23;;;21.60;50.30;;;;;;5134469;27;20687;-82
2022/07/16 08:59:16;;;;;;;2.10;1.43;;;21.90;49.70;;;;;;5135204;27;20618;-82
2022/07/16 09:01:43;;;;;;;1.83;1.70;;;21.90;50.00;;;;;;5134808;27;21214;-83
2022/07/16 09:04:12;;;;;;;1.07;0.90;;;22.00;48.90;;;;;;5134659;27;20622;-82
2022/07/16 09:06:41;;;;;;;1.27;1.17;;;22.00;49.60;;;;;;5132649;27;20666;-84
2022/07/16 09:09:09;;;;;;;2.53;1.63;;;22.10;47.70;;;;;;5122588;27;20622;-84
2022/07/16 09:11:37;;;;;;;1.60;1.50;;;22.20;48.00;;;;;;5134242;27;20661;-84
2022/07/16 09:14:07;;;;;;;1.40;1.20;;;22.20;47.90;;;;;;5134424;27;20726;-85
2022/07/16 09:16:36;;;;;;;0.97;0.87;;;21.90;48.10;;;;;;5134354;27;20626;-84
2022/07/16 09:19:07;;;;;;;1.03;0.90;;;22.20;48.00;;;;;;5134743;27;20633;-85
2022/07/16 09:21:57;;;;;;;1.30;1.20;;;22.20;47.10;;;;;;5133533;27;20614;-85
2022/07/16 09:24:35;;;;;;;1.50;1.30;;;22.20;47.60;;;;;;5126518;27;20626;-84
2022/07/16 09:27:05;;;;;;;1.10;1.10;;;22.40;48.40;;;;;;5113488;28;20684;-85
2022/07/16 09:29:37;;;;;;;1.60;1.23;;;22.80;48.00;;;;;;5113283;28;20991;-84
2022/07/16 09:32:04;;;;;;;0.73;0.73;;;22.90;47.60;;;;;;5113224;28;20754;-83
2022/07/16 09:34:31;;;;;;;2.20;1.00;;;22.60;46.20;;;;;;5132127;27;20650;-84
2022/07/16 09:37:02;;;;;;;1.20;1.10;;;22.80;47.50;;;;;;5134427;27;20705;-85
2022/07/16 09:39:30;;;;;;;1.03;1.00;;;22.90;47.20;;;;;;5133959;27;20614;-84
2022/07/16 09:41:58;;;;;;;1.17;1.17;;;23.00;46.50;;;;;;5133980;27;20618;-85
2022/07/16 09:44:27;;;;;;;0.93;0.93;;;23.20;47.10;;;;;;5133726;27;20650;-85
2022/07/16 09:47:00;;;;;;;1.00;1.00;;;23.30;46.30;;;;;;5133509;27;20615;-84
2022/07/16 09:49:30;;;;;;;1.17;1.10;;;23.30;46.40;;;;;;5133740;27;20730;-84
2022/07/16 09:51:57;;;;;;;1.30;1.20;;;23.20;45.80;;;;;;5133661;27;20748;-85
2022/07/16 09:54:34;;;;;;;1.20;1.10;;;23.20;45.70;;;;;;5133467;27;20611;-83
2022/07/16 09:57:13;;;;;;;1.10;1.00;;;23.40;46.50;;;;;;5133570;27;20618;-84
2022/07/16 09:59:41;;;;;;;1.57;1.30;;;23.70;46.60;;;;;;5133599;27;20649;-84
2022/07/16 10:02:08;;;;;;;1.20;0.87;;;23.90;46.00;;;;;;5133486;27;20722;-83
2022/07/16 10:04:35;;;;;;;1.47;1.20;;;24.00;45.20;;;;;;5133079;27;20655;-83
2022/07/16 10:07:02;;;;;;;0.97;0.97;;;24.00;46.80;;;;;;5132125;27;20603;-83
2022/07/16 10:09:31;;;;;;;0.97;0.97;;;23.90;46.60;;;;;;5133148;27;20973;-83
2022/07/16 10:12:05;;;;;;;1.40;1.30;;;23.90;46.70;;;;;;5121642;27;20655;-83
2022/07/16 10:14:33;;;;;;;1.00;1.00;;;24.20;46.60;;;;;;5112888;28;21090;-83
2022/07/16 10:17:00;;;;;;;1.10;1.00;;;24.40;44.70;;;;;;5112949;28;20993;-82
2022/07/16 10:19:36;;;;;;;0.87;0.80;;;24.40;44.60;;;;;;5113096;28;20998;-83
2022/07/16 10:22:29;;;;;;;1.83;1.10;;;24.30;45.10;;;;;;5124185;27;20649;-83
2022/07/16 10:24:58;;;;;;;1.30;1.23;;;24.30;44.80;;;;;;5109830;27;20659;-82
2022/07/16 10:27:29;;;;;;;1.27;1.27;;;24.50;46.10;;;;;;5133642;27;20611;-83
2022/07/16 10:30:24;;;;;;;1.13;1.03;;;24.60;44.50;;;;;;5133173;27;20618;-83
2022/07/16 10:33:13;;;;;;;1.20;1.10;;;24.40;45.40;;;;;;5098825;27;20659;-84
2022/07/16 10:35:44;;;;;;;1.40;1.30;;;24.70;45.40;;;;;;5112038;28;21158;-83
2022/07/16 10:38:12;;;;;;;1.30;1.20;;;24.50;43.60;;;;;;5112353;28;20978;-83
2022/07/16 10:40:43;;;;;;;1.50;1.40;;;24.70;45.50;;;;;;5128798;27;21268;-84
2022/07/16 10:43:14;;;;;;;1.37;1.27;;;25.00;43.00;;;;;;5132768;27;20653;-84
2022/07/16 10:45:56;;;;;;;1.23;1.23;;;25.20;44.70;;;;;;5132821;27;20820;-83
2022/07/16 10:48:24;;;;;;;1.20;1.10;;;25.30;45.10;;;;;;5132757;27;20666;-83
2022/07/16 10:51:13;;;;;;;2.00;1.70;;;25.60;45.20;;;;;;5132762;27;20676;-84
2022/07/16 10:54:29;;;;;;;5.53;1.30;;;25.60;44.10;;;;;;5124274;27;20638;-83
2022/07/16 10:56:59;;;;;;;1.00;1.00;;;25.90;43.70;;;;;;5121285;27;20635;-83
2022/07/16 10:59:28;;;;;;;1.70;1.40;;;26.10;43.40;;;;;;5131983;27;20995;-83
2022/07/16 11:01:56;;;;;;;1.27;1.00;;;25.80;42.80;;;;;;5131828;27;20618;-82
2022/07/16 11:04:32;;;;;;;1.30;1.20;;;25.50;42.90;;;;;;5131775;27;21247;-82
2022/07/16 11:07:00;;;;;;;1.17;0.90;;;25.50;43.10;;;;;;5121298;27;20647;-82
2022/07/16 11:09:28;;;;;;;0.80;0.80;;;25.90;44.10;;;;;;5111558;28;20676;-82
2022/07/16 11:12:05;;;;;;;1.60;1.50;;;25.90;42.70;;;;;;5111714;28;20695;-83
2022/07/16 11:14:32;;;;;;;3.13;1.30;;;26.20;43.10;;;;;;5112057;28;20713;-83
2022/07/16 11:16:59;;;;;;;1.10;0.93;;;26.30;42.60;;;;;;5121533;27;20654;-83
2022/07/16 11:19:26;;;;;;;1.20;1.13;;;26.30;42.80;;;;;;5126683;27;20663;-83
2022/07/16 11:21:57;;;;;;;1.20;1.20;;;26.40;41.80;;;;;;5111754;28;20647;-84
2022/07/16 11:24:25;;;;;;;1.03;1.03;;;26.70;40.90;;;;;;5111571;28;20619;-84
2022/07/16 11:26:52;;;;;;;1.40;1.30;;;26.80;42.60;;;;;;5119933;27;20599;-83
2022/07/16 11:29:23;;;;;;;1.17;1.07;;;26.80;41.80;;;;;;5131843;27;20603;-83
2022/07/16 11:31:50;;;;;;;0.93;0.93;;;27.30;42.50;;;;;;5132162;27;20650;-83
2022/07/16 11:34:19;;;;;;;1.50;1.33;;;27.40;41.90;;;;;;5115314;27;20726;-82
2022/07/16 11:36:49;;;;;;;1.17;1.17;;;27.70;41.30;;;;;;5118555;27;20992;-82
2022/07/16 11:39:17;;;;;;;0.80;0.80;;;27.70;41.10;;;;;;5131436;27;20722;-82
2022/07/16 11:41:46;;;;;;;1.20;1.10;;;27.70;40.50;;;;;;5118070;27;20647;-82
2022/07/16 11:44:15;;;;;;;1.23;1.10;;;27.80;40.20;;;;;;5111175;28;20596;-82
2022/07/16 11:46:46;;;;;;;0.90;0.90;;;27.70;40.80;;;;;;5117721;28;20654;-82
2022/07/16 11:49:22;;;;;;;1.27;1.20;;;28.30;40.10;;;;;;5131668;28;20733;-84
2022/07/16 11:51:49;;;;;;;0.60;0.60;;;29.20;39.20;;;;;;5131379;28;20684;-84
2022/07/16 11:54:16;;;;;;;0.80;0.80;;;29.20;38.70;;;;;;5131705;28;20603;-84
2022/07/16 11:56:44;;;;;;;1.50;0.80;;;29.70;37.00;;;;;;5125199;28;20680;-82
2022/07/16 11:59:22;;;;;;;0.90;0.80;;;29.70;36.30;;;;;;5111388;28;20711;-83
2022/07/16 12:01:59;;;;;;;0.80;0.80;;;29.60;38.40;;;;;;5111348;28;20612;-84
2022/07/16 12:04:37;;;;;;;0.90;0.90;;;30.20;37.60;;;;;;5111059;28;20730;-83
2022/07/16 12:07:06;;;;;;;3.63;0.90;;;30.60;37.60;;;;;;5120484;28;20621;-83
2022/07/16 12:09:35;;;;;;;1.03;0.90;;;31.70;37.90;;;;;;5131692;28;21040;-83
2022/07/16 12:12:05;;;;;;;0.80;0.80;;;32.00;34.80;;;;;;5131698;28;20741;-83
2022/07/16 12:14:51;;;;;;;1.20;1.07;;;32.00;34.60;;;;;;5131174;28;20709;-84
2022/07/16 12:17:27;;;;;;;1.30;1.23;;;32.70;36.30;;;;;;5119876;28;21285;-84
2022/07/16 12:20:15;;;;;;;0.67;0.67;;;33.50;33.70;;;;;;5111090;28;20654;-84
2022/07/16 12:23:04;;;;;;;1.23;1.13;;;33.60;34.80;;;;;;5110798;28;20619;-84
2022/07/16 12:25:37;;;;;;;1.37;1.27;;;34.40;32.40;;;;;;5104966;28;20729;-84
2022/07/16 12:28:07;;;;;;;0.87;0.80;;;35.00;32.20;;;;;;5128451;28;20660;-84
2022/07/16 12:30:38;;;;;;;0.87;0.87;;;35.60;33.00;;;;;;5131160;28;20617;-85
2022/07/16 12:33:07;;;;;;;1.00;0.80;;;36.00;32.10;;;;;;5125167;28;20651;-84
2022/07/16 12:35:39;;;;;;;0.60;0.60;;;35.40;31.70;;;;;;5110313;28;20722;-85
2022/07/16 12:38:07;;;;;;;1.33;1.20;;;36.00;30.00;;;;;;5128876;28;20221;-86
2022/07/16 12:40:34;;;;;;;0.90;0.90;;;36.40;31.00;;;;;;5127200;28;20281;-85
2022/07/16 12:43:01;;;;;;;1.23;1.13;;;35.70;31.80;;;;;;5110901;28;20193;-85
2022/07/16 12:45:29;;;;;;;1.03;1.03;;;35.60;30.00;;;;;;5110826;28;20198;-84
2022/07/16 12:47:56;;;;;;;0.70;0.60;;;36.20;31.50;;;;;;5125975;28;20188;-84
2022/07/16 12:50:26;;;;;;;0.60;0.60;;;35.40;31.20;;;;;;5131444;28;20205;-83
2022/07/16 12:52:52;;;;;;;0.80;0.80;;;34.90;30.30;;;;;;5131113;28;20663;-84
2022/07/16 13:00:48;;;;;;;0.80;0.80;;;35.70;31.00;;;;;;5114739;28;21228;-85
2022/07/16 13:03:15;;;;;;;0.53;0.53;;;35.40;31.50;;;;;;5114203;28;20622;-85
2022/07/16 13:05:43;;;;;;;0.70;0.70;;;36.00;31.80;;;;;;5114497;28;20611;-85
2022/07/16 13:08:10;;;;;;;0.90;0.90;;;36.50;31.00;;;;;;5131545;27;20203;-84